createdAt,value
2022-10-25T00:00:53.013Z,12.69
2022-10-25T00:04:05.848Z,12.74
2022-10-25T00:07:07.610Z,12.77
2022-10-25T00:10:10.070Z,12.80
2022-10-25T00:13:11.815Z,12.84
2022-10-25T00:16:15.568Z,12.86
2022-10-25T00:19:17.435Z,12.89
2022-10-25T00:22:19.223Z,12.93
2022-10-25T00:25:21.046Z,12.97
2022-10-25T00:28:22.788Z,13.01
2022-10-25T00:31:25.140Z,13.04
2022-10-25T00:34:26.918Z,13.06
2022-10-25T00:37:28.646Z,13.07
2022-10-25T00:40:30.372Z,13.08
2022-10-25T00:43:36.445Z,13.09
2022-10-25T00:46:38.284Z,13.10
2022-10-25T00:49:41.340Z,13.10
2022-10-25T00:52:44.157Z,13.10
2022-10-25T00:55:49.306Z,13.11
2022-10-25T00:58:53.667Z,13.11
2022-10-25T01:01:56.128Z,13.11
2022-10-25T01:04:58.290Z,13.13
2022-10-25T01:08:00.048Z,13.15
2022-10-25T01:11:01.909Z,13.14
2022-10-25T01:14:08.027Z,13.14
2022-10-25T01:17:21.750Z,13.16
2022-10-25T01:20:32.347Z,13.15
2022-10-25T01:23:55.947Z,13.14
2022-10-25T01:27:12.029Z,13.14
2022-10-25T01:30:45.409Z,13.11
2022-10-25T01:34:11.720Z,13.09
2022-10-25T01:37:36.859Z,13.08
2022-10-25T01:40:41.254Z,13.07
2022-10-25T01:44:04.759Z,13.06
2022-10-25T01:47:18.083Z,13.05
2022-10-25T01:50:27.037Z,13.03
2022-10-25T01:53:28.733Z,13.01
2022-10-25T01:56:33.915Z,12.99
2022-10-25T02:00:03.324Z,12.97
2022-10-25T02:03:15.274Z,12.93
2022-10-25T02:06:36.509Z,12.90
2022-10-25T02:09:48.143Z,12.89
2022-10-25T02:12:57.104Z,12.89
2022-10-25T02:16:03.454Z,12.89
2022-10-25T02:19:07.855Z,12.89
2022-10-25T02:22:10.774Z,12.89
2022-10-25T02:25:13.189Z,12.87
2022-10-25T02:28:16.447Z,12.85
2022-10-25T02:31:20.086Z,12.83
2022-10-25T02:34:22.195Z,12.84
2022-10-25T02:37:27.292Z,12.84
2022-10-25T02:40:29.516Z,12.83
2022-10-25T02:43:31.730Z,12.81
2022-10-25T02:46:36.463Z,12.78
2022-10-25T02:49:38.292Z,12.77
2022-10-25T02:52:40.163Z,12.77
2022-10-25T02:55:42.102Z,12.77
2022-10-25T02:58:44.833Z,12.78
2022-10-25T03:01:47.331Z,12.77
2022-10-25T03:04:49.171Z,12.74
2022-10-25T03:07:50.981Z,12.73
2022-10-25T03:10:53.147Z,12.74
2022-10-25T03:13:55.155Z,12.75
2022-10-25T03:16:56.918Z,12.74
2022-10-25T03:19:58.752Z,12.72
2022-10-25T03:23:00.928Z,12.72
2022-10-25T03:26:02.888Z,12.72
2022-10-25T03:29:04.799Z,12.72
2022-10-25T03:32:07.884Z,12.73
2022-10-25T03:35:09.776Z,12.69
2022-10-25T03:38:11.659Z,12.65
2022-10-25T03:41:15.898Z,12.66
2022-10-25T03:44:17.755Z,12.71
2022-10-25T03:47:19.600Z,12.78
2022-10-25T03:50:21.414Z,12.86
2022-10-25T03:53:23.213Z,12.93
2022-10-25T03:56:24.966Z,12.98
2022-10-25T03:59:27.542Z,13.01
2022-10-25T04:02:29.433Z,13.07
2022-10-25T04:05:31.917Z,13.11
2022-10-25T04:08:34.027Z,13.12
2022-10-25T04:11:35.886Z,13.16
2022-10-25T04:14:37.694Z,13.19
2022-10-25T04:17:39.771Z,13.21
2022-10-25T04:20:41.472Z,13.20
2022-10-25T04:23:43.302Z,13.21
2022-10-25T04:26:45.243Z,13.21
2022-10-25T04:29:47.014Z,13.19
2022-10-25T04:32:49.459Z,13.18
2022-10-25T04:35:56.609Z,13.16
2022-10-25T04:38:58.427Z,13.15
2022-10-25T04:42:00.266Z,13.11
2022-10-25T04:45:02.314Z,13.02
2022-10-25T04:48:04.228Z,12.89
2022-10-25T04:51:06.588Z,12.81
2022-10-25T04:54:08.383Z,12.77
2022-10-25T04:57:10.216Z,12.76
2022-10-25T05:00:12.547Z,12.75
2022-10-25T05:03:14.346Z,12.77
2022-10-25T05:06:22.316Z,12.78
2022-10-25T05:09:24.249Z,12.80
2022-10-25T05:12:26.008Z,12.80
2022-10-25T05:15:27.879Z,12.79
2022-10-25T05:18:30.883Z,12.78
2022-10-25T05:21:32.667Z,12.79
2022-10-25T05:24:34.682Z,12.78
2022-10-25T05:27:39.617Z,12.78
2022-10-25T05:30:44.042Z,12.78
2022-10-25T05:33:46.761Z,12.76
2022-10-25T05:36:48.591Z,12.74
2022-10-25T05:39:50.389Z,12.74
2022-10-25T05:42:53.631Z,12.73
2022-10-25T05:46:07.273Z,12.80
2022-10-25T05:49:09.887Z,12.84
2022-10-25T05:52:12.410Z,12.87
2022-10-25T05:55:14.499Z,12.88
2022-10-25T05:58:16.313Z,12.87
2022-10-25T06:01:20.910Z,12.83
2022-10-25T06:04:23.242Z,12.80
2022-10-25T06:07:25.113Z,12.79
2022-10-25T06:10:26.925Z,12.75
2022-10-25T06:13:28.856Z,12.71
2022-10-25T06:16:30.777Z,12.74
2022-10-25T06:19:32.539Z,13.10
2022-10-25T06:22:34.242Z,13.44
2022-10-25T06:25:36.027Z,13.36
2022-10-25T06:28:38.397Z,13.22
2022-10-25T06:31:41.692Z,13.17
2022-10-25T06:34:43.474Z,13.14
2022-10-25T06:37:45.203Z,13.28
2022-10-25T06:40:46.931Z,13.45
2022-10-25T06:43:49.608Z,13.62
2022-10-25T06:47:15.953Z,13.65
2022-10-25T06:50:13.585Z,13.59
2022-10-25T06:53:15.410Z,13.58
2022-10-25T06:56:17.250Z,13.54
2022-10-25T06:59:20.698Z,13.55
2022-10-25T07:02:22.601Z,13.62
2022-10-25T07:05:25.389Z,13.73
2022-10-25T07:08:27.229Z,13.79
2022-10-25T07:11:31.193Z,13.75
2022-10-25T07:14:33.018Z,13.70
2022-10-25T07:17:34.971Z,13.63
2022-10-25T07:20:36.802Z,13.61
2022-10-25T07:23:42.542Z,13.83
2022-10-25T07:26:44.532Z,14.12
2022-10-25T07:29:46.469Z,14.13
2022-10-25T07:32:48.280Z,14.03
2022-10-25T07:36:09.982Z,13.96
2022-10-25T07:39:12.678Z,13.92
2022-10-25T07:42:14.593Z,13.92
2022-10-25T07:45:18.756Z,14.01
2022-10-25T07:48:24.509Z,14.35
2022-10-25T07:51:26.289Z,15.11
2022-10-25T07:54:28.027Z,15.66
2022-10-25T07:57:30.401Z,15.75
2022-10-25T08:00:32.539Z,15.56
2022-10-25T08:03:34.647Z,15.46
2022-10-25T08:06:36.545Z,15.27
2022-10-25T08:09:38.880Z,15.10
2022-10-25T08:12:41.225Z,14.97
2022-10-25T08:15:52.695Z,14.88
2022-10-25T08:18:54.430Z,14.87
2022-10-25T08:21:56.368Z,14.86
2022-10-25T08:24:58.109Z,15.04
2022-10-25T08:27:59.847Z,15.87
2022-10-25T08:31:02.143Z,16.69
2022-10-25T08:34:04.189Z,17.33
2022-10-25T08:37:05.950Z,17.99
2022-10-25T08:40:13.315Z,18.44
2022-10-25T08:43:25.777Z,18.79
2022-10-25T08:46:37.807Z,19.13
2022-10-25T08:49:39.754Z,19.47
2022-10-25T08:52:48.148Z,19.55
2022-10-25T08:56:11.620Z,19.83
2022-10-25T08:59:17.604Z,20.14
2022-10-25T09:02:28.566Z,20.29
2022-10-25T09:05:47.856Z,20.49
2022-10-25T09:08:55.831Z,20.75
2022-10-25T09:12:19.189Z,21.09
2022-10-25T09:15:43.998Z,21.28
2022-10-25T09:18:50.286Z,21.05
2022-10-25T09:22:10.544Z,21.12
2022-10-25T09:25:47.532Z,20.97
2022-10-25T09:28:55.292Z,20.51
2022-10-25T09:32:00.913Z,19.71
2022-10-25T09:35:04.766Z,19.32
2022-10-25T09:38:26.514Z,18.65
2022-10-25T09:41:47.263Z,18.19
2022-10-25T09:44:53.564Z,18.08
2022-10-25T09:48:01.223Z,18.15
2022-10-25T09:51:22.536Z,18.08
2022-10-25T09:54:29.046Z,17.82
2022-10-25T09:57:30.867Z,17.56
2022-10-25T10:00:33.915Z,17.36
2022-10-25T10:03:36.648Z,17.28
2022-10-25T10:06:39.224Z,17.45
2022-10-25T10:09:45.772Z,18.09
2022-10-25T10:12:56.942Z,18.66
2022-10-25T10:16:02.475Z,18.29
2022-10-25T10:19:22.082Z,17.74
2022-10-25T10:22:23.797Z,17.38
2022-10-25T10:25:28.665Z,17.17
2022-10-25T10:28:31.304Z,16.98
2022-10-25T10:31:38.448Z,16.81
2022-10-25T10:34:44.415Z,16.62
2022-10-25T10:37:46.425Z,16.42
2022-10-25T10:40:51.638Z,16.23
2022-10-25T10:44:13.568Z,16.06
2022-10-25T10:47:20.622Z,15.92
2022-10-25T10:50:28.751Z,15.78
2022-10-25T10:53:32.951Z,15.64
2022-10-25T10:56:35.248Z,15.53
2022-10-25T10:59:52.091Z,15.45
2022-10-25T11:05:56.111Z,15.43
2022-10-25T11:09:24.985Z,15.38
2022-10-25T11:12:26.820Z,15.31
2022-10-25T11:15:30.118Z,15.25
2022-10-25T11:18:53.943Z,15.21
2022-10-25T11:22:10.483Z,15.20
2022-10-25T11:25:12.132Z,15.16
2022-10-25T11:28:41.738Z,15.18
2022-10-25T11:32:04.759Z,15.23
2022-10-25T11:35:19.619Z,15.27
2022-10-25T11:38:43.235Z,15.29
2022-10-25T11:41:47.948Z,15.30
2022-10-25T11:45:13.241Z,15.35
2022-10-25T11:48:24.070Z,15.49
2022-10-25T11:52:04.055Z,15.63
2022-10-25T11:55:29.799Z,15.81
2022-10-25T11:58:40.748Z,15.93
2022-10-25T12:02:00.400Z,16.00
2022-10-25T12:05:22.008Z,16.08
2022-10-25T12:08:41.495Z,16.18
2022-10-25T12:11:47.241Z,16.30
2022-10-25T12:14:52.107Z,16.41
2022-10-25T12:17:54.164Z,16.50
2022-10-25T12:20:56.235Z,16.61
2022-10-25T12:23:58.550Z,16.80
2022-10-25T12:27:00.473Z,16.84
2022-10-25T12:30:10.613Z,16.85
2022-10-25T12:33:27.864Z,16.98
2022-10-25T12:36:36.809Z,17.10
2022-10-25T12:39:43.141Z,17.11
2022-10-25T12:42:47.247Z,17.00
2022-10-25T12:46:10.181Z,16.89
2022-10-25T12:49:27.272Z,16.81
2022-10-25T12:53:01.100Z,16.89
2022-10-25T12:56:33.753Z,16.92
2022-10-25T12:59:41.981Z,16.88
2022-10-25T13:03:02.439Z,17.00
2022-10-25T13:06:16.456Z,17.10
2022-10-25T13:09:23.395Z,17.08
2022-10-25T13:12:32.119Z,17.24
2022-10-25T13:15:46.096Z,17.43
2022-10-25T13:18:48.118Z,17.37
2022-10-25T13:21:53.399Z,17.22
2022-10-25T13:24:56.323Z,17.15
2022-10-25T13:28:35.260Z,17.08
2022-10-25T13:31:37.891Z,17.15
2022-10-25T13:34:39.762Z,17.31
2022-10-25T13:37:43.163Z,17.38
2022-10-25T13:41:04.967Z,17.36
2022-10-25T13:44:06.817Z,17.28
2022-10-25T13:47:28.941Z,17.16
2022-10-25T13:50:36.044Z,17.02
2022-10-25T13:53:49.260Z,16.91
2022-10-25T13:56:52.760Z,16.84
2022-10-25T13:59:54.407Z,16.73
2022-10-25T14:03:06.004Z,16.65
2022-10-25T14:06:17.565Z,16.57
2022-10-25T14:09:34.768Z,16.53
2022-10-25T14:12:36.751Z,16.47
2022-10-25T14:15:46.130Z,16.46
2022-10-25T14:18:49.756Z,16.37
2022-10-25T14:21:52.796Z,16.26
2022-10-25T14:24:55.041Z,16.14
2022-10-25T14:28:06.061Z,16.01
2022-10-25T14:31:07.947Z,15.89
2022-10-25T14:34:21.520Z,15.78
2022-10-25T14:37:23.309Z,15.67
2022-10-25T14:40:29.071Z,15.64
2022-10-25T14:43:33.874Z,15.60
2022-10-25T14:46:35.498Z,15.60
2022-10-25T14:49:37.272Z,15.60
2022-10-25T14:52:38.961Z,15.58
2022-10-25T14:55:40.606Z,15.54
2022-10-25T14:58:43.305Z,15.48
2022-10-25T15:01:54.636Z,15.42
2022-10-25T15:04:58.616Z,15.37
2022-10-25T15:08:00.712Z,15.31
2022-10-25T15:11:05.513Z,15.24
2022-10-25T15:14:20.963Z,15.17
2022-10-25T15:17:22.603Z,15.06
2022-10-25T15:20:29.632Z,14.94
2022-10-25T15:23:31.615Z,14.84
2022-10-25T15:26:38.256Z,14.77
2022-10-25T15:29:40.733Z,14.69
2022-10-25T15:32:42.367Z,14.65
2022-10-25T15:35:51.977Z,14.63
2022-10-25T15:39:10.491Z,14.61
2022-10-25T15:42:16.397Z,14.59
2022-10-25T15:45:17.989Z,14.58
2022-10-25T15:48:22.026Z,14.56
2022-10-25T15:51:25.252Z,14.56
2022-10-25T15:54:29.704Z,14.55
2022-10-25T15:57:31.277Z,14.55
2022-10-25T16:00:33.142Z,14.53
2022-10-25T16:03:34.753Z,14.52
2022-10-25T16:06:36.506Z,14.48
2022-10-25T16:09:38.133Z,14.35
2022-10-25T16:12:39.980Z,14.17
2022-10-25T16:15:42.663Z,14.07
2022-10-25T16:18:44.548Z,14.04
2022-10-25T16:21:46.286Z,14.02
2022-10-25T16:24:48.015Z,14.00
2022-10-25T16:27:49.791Z,13.99
2022-10-25T16:30:51.478Z,13.97
2022-10-25T16:33:53.147Z,13.96
2022-10-25T16:36:55.224Z,13.94
2022-10-25T16:39:56.806Z,13.91
2022-10-25T16:42:58.554Z,13.86
2022-10-25T16:46:00.185Z,13.68
2022-10-25T16:49:02.994Z,13.33
2022-10-25T16:52:06.158Z,12.91
2022-10-25T16:55:08.400Z,12.71
2022-10-25T16:58:10.286Z,12.59
2022-10-25T17:01:20.693Z,12.43
2022-10-25T17:04:23.542Z,12.31
2022-10-25T17:07:25.164Z,12.21
2022-10-25T17:10:27.267Z,12.04
2022-10-25T17:13:28.987Z,11.93
2022-10-25T17:16:30.849Z,11.91
2022-10-25T17:19:32.455Z,12.01
2022-10-25T17:22:35.081Z,12.15
2022-10-25T17:25:36.925Z,12.27
2022-10-25T17:28:43.131Z,12.35
2022-10-25T17:31:46.160Z,12.40
2022-10-25T17:34:47.892Z,12.35
2022-10-25T17:37:55.925Z,12.31
2022-10-25T17:40:57.573Z,12.32
2022-10-25T17:43:59.212Z,12.30
2022-10-25T17:47:03.096Z,12.29
2022-10-25T17:50:05.407Z,12.28
2022-10-25T17:53:08.779Z,12.28
2022-10-25T17:56:17.239Z,12.28
2022-10-25T17:59:18.991Z,12.28
2022-10-25T18:02:20.907Z,12.27
2022-10-25T18:05:22.938Z,12.29
2022-10-25T18:08:24.827Z,12.32
2022-10-25T18:11:28.217Z,12.33
2022-10-25T18:14:29.960Z,12.33
2022-10-25T18:17:31.794Z,12.34
2022-10-25T18:20:33.581Z,12.33
2022-10-25T18:23:35.880Z,12.33
2022-10-25T18:26:37.590Z,12.31
2022-10-25T18:29:39.988Z,12.31
2022-10-25T18:32:41.775Z,12.27
2022-10-25T18:35:43.385Z,12.23
2022-10-25T18:38:45.930Z,12.18
2022-10-25T18:41:48.856Z,12.11
2022-10-25T18:44:51.701Z,12.04
2022-10-25T18:47:54.009Z,11.98
2022-10-25T18:50:55.990Z,11.92
2022-10-25T18:53:59.899Z,11.85
2022-10-25T18:57:01.607Z,11.77
2022-10-25T19:00:04.987Z,11.70
2022-10-25T19:03:07.961Z,11.61
2022-10-25T19:06:10.572Z,11.51
2022-10-25T19:09:14.467Z,11.40
2022-10-25T19:12:16.537Z,11.34
2022-10-25T19:15:18.257Z,11.31
2022-10-25T19:18:20.051Z,11.29
2022-10-25T19:21:22.046Z,11.28
2022-10-25T19:24:24.049Z,11.34
2022-10-25T19:27:25.885Z,11.40
2022-10-25T19:30:27.583Z,11.43
2022-10-25T19:33:31.352Z,11.45
2022-10-25T19:36:33.094Z,11.48
2022-10-25T19:39:36.001Z,11.48
2022-10-25T19:42:38.115Z,11.45
2022-10-25T19:45:43.164Z,11.40
2022-10-25T19:48:45.133Z,11.33
2022-10-25T19:51:46.920Z,11.26
2022-10-25T19:54:48.873Z,11.19
2022-10-25T19:57:51.559Z,11.10
2022-10-25T20:01:01.417Z,11.01
2022-10-25T20:04:03.329Z,10.90
2022-10-25T20:07:05.277Z,10.78
2022-10-25T20:10:07.156Z,10.69
2022-10-25T20:13:08.758Z,10.62
2022-10-25T20:16:11.010Z,10.52
2022-10-25T20:19:13.776Z,10.44
2022-10-25T20:22:16.747Z,10.38
2022-10-25T20:25:18.405Z,10.29
2022-10-25T20:28:20.091Z,10.25
2022-10-25T20:31:23.112Z,10.23
2022-10-25T20:34:24.860Z,10.11
2022-10-25T20:37:26.663Z,10.00
2022-10-25T20:40:28.336Z,9.88
2022-10-25T20:43:30.012Z,9.82
2022-10-25T20:46:33.098Z,9.76
2022-10-25T20:49:35.013Z,9.71
2022-10-25T20:52:39.753Z,9.69
2022-10-25T20:55:52.534Z,9.70
2022-10-25T20:58:54.157Z,9.83
2022-10-25T21:01:56.027Z,9.99
2022-10-25T21:04:57.879Z,10.10
2022-10-25T21:08:00.907Z,10.23
2022-10-25T21:11:04.573Z,10.37
2022-10-25T21:14:06.725Z,10.50
2022-10-25T21:17:08.606Z,10.63
2022-10-25T21:20:10.674Z,10.74
2022-10-25T21:23:12.925Z,10.82
2022-10-25T21:26:14.693Z,10.90
2022-10-25T21:29:16.687Z,11.00
2022-10-25T21:32:18.332Z,11.07
2022-10-25T21:35:20.842Z,11.12
2022-10-25T21:38:22.487Z,11.16
2022-10-25T21:41:27.291Z,11.19
2022-10-25T21:44:29.395Z,11.27
2022-10-25T21:47:31.080Z,11.31
2022-10-25T21:50:32.684Z,11.33
2022-10-25T21:53:34.516Z,11.35
2022-10-25T21:56:36.259Z,11.33
2022-10-25T21:59:37.941Z,11.33
2022-10-25T22:02:39.830Z,11.32
2022-10-25T22:05:44.822Z,11.31
2022-10-25T22:08:47.340Z,11.27
2022-10-25T22:11:52.348Z,11.24
2022-10-25T22:14:54.285Z,11.20
2022-10-25T22:17:56.036Z,11.17
2022-10-25T22:21:00.466Z,11.13
2022-10-25T22:24:02.807Z,11.12
2022-10-25T22:27:04.604Z,11.12
2022-10-25T22:30:07.024Z,11.09
2022-10-25T22:33:08.699Z,11.11
2022-10-25T22:36:18.033Z,11.11
2022-10-25T22:39:19.910Z,11.11
2022-10-25T22:42:22.118Z,11.12
2022-10-25T22:45:23.877Z,11.11
2022-10-25T22:48:30.100Z,11.14
2022-10-25T22:51:31.994Z,11.14
2022-10-25T22:54:33.635Z,11.14
2022-10-25T22:57:35.264Z,11.14
2022-10-25T23:00:36.985Z,11.17
2022-10-25T23:03:40.624Z,11.20
2022-10-25T23:07:02.201Z,11.25
2022-10-25T23:10:19.029Z,11.28
2022-10-25T23:13:20.851Z,11.30
2022-10-25T23:16:22.507Z,11.30
2022-10-25T23:19:24.102Z,11.29
2022-10-25T23:22:25.776Z,11.27
2022-10-25T23:25:27.533Z,11.27
2022-10-25T23:28:33.064Z,11.24
2022-10-25T23:31:35.000Z,11.18
2022-10-25T23:34:38.787Z,11.14
2022-10-25T23:37:41.066Z,11.07
2022-10-25T23:40:46.154Z,11.01
2022-10-25T23:43:48.145Z,10.98
2022-10-25T23:46:50.248Z,10.98
2022-10-25T23:49:52.262Z,10.98
2022-10-25T23:52:53.930Z,10.99
2022-10-25T23:55:56.305Z,11.01
2022-10-25T23:58:57.891Z,11.03
